sensor_id;sensor_type;location;lat;lon;timestamp;P1;durP1;ratioP1;P2;durP2;ratioP2
47715;SDS011;33476;50.984;3.538;2023-01-29T00:02:11;35.20;;;17.33;;
47715;SDS011;33476;50.984;3.538;2023-01-29T00:04:36;34.88;;;16.58;;
47715;SDS011;33476;50.984;3.538;2023-01-29T00:07:01;34.70;;;17.00;;
47715;SDS011;33476;50.984;3.538;2023-01-29T00:09:27;32.50;;;16.48;;
47715;SDS011;33476;50.984;3.538;2023-01-29T00:11:52;33.50;;;16.67;;
47715;SDS011;33476;50.984;3.538;2023-01-29T00:14:18;30.35;;;16.60;;
47715;SDS011;33476;50.984;3.538;2023-01-29T00:16:43;35.42;;;17.05;;
47715;SDS011;33476;50.984;3.538;2023-01-29T00:19:09;33.50;;;17.45;;
47715;SDS011;33476;50.984;3.538;2023-01-29T00:21:34;34.88;;;17.33;;
47715;SDS011;33476;50.984;3.538;2023-01-29T00:24:00;39.55;;;18.05;;
47715;SDS011;33476;50.984;3.538;2023-01-29T00:26:26;33.58;;;16.67;;
47715;SDS011;33476;50.984;3.538;2023-01-29T00:28:51;33.45;;;17.25;;
47715;SDS011;33476;50.984;3.538;2023-01-29T00:31:18;37.80;;;17.17;;
47715;SDS011;33476;50.984;3.538;2023-01-29T00:33:46;36.92;;;17.65;;
47715;SDS011;33476;50.984;3.538;2023-01-29T00:36:13;36.95;;;17.27;;
47715;SDS011;33476;50.984;3.538;2023-01-29T00:38:40;30.67;;;16.20;;
47715;SDS011;33476;50.984;3.538;2023-01-29T00:41:12;40.50;;;17.88;;
47715;SDS011;33476;50.984;3.538;2023-01-29T00:43:58;33.97;;;17.45;;
47715;SDS011;33476;50.984;3.538;2023-01-29T00:46:43;38.30;;;18.00;;
47715;SDS011;33476;50.984;3.538;2023-01-29T00:49:08;39.05;;;17.45;;
47715;SDS011;33476;50.984;3.538;2023-01-29T00:51:34;38.35;;;18.38;;
47715;SDS011;33476;50.984;3.538;2023-01-29T00:54:00;36.30;;;17.55;;
47715;SDS011;33476;50.984;3.538;2023-01-29T00:56:26;34.00;;;17.65;;
47715;SDS011;33476;50.984;3.538;2023-01-29T00:58:53;32.58;;;16.10;;
47715;SDS011;33476;50.984;3.538;2023-01-29T01:01:18;37.72;;;17.58;;
47715;SDS011;33476;50.984;3.538;2023-01-29T01:04:04;33.63;;;16.55;;
47715;SDS011;33476;50.984;3.538;2023-01-29T01:06:30;38.15;;;17.25;;
47715;SDS011;33476;50.984;3.538;2023-01-29T01:08:55;35.40;;;17.05;;
47715;SDS011;33476;50.984;3.538;2023-01-29T01:11:39;36.42;;;17.02;;
47715;SDS011;33476;50.984;3.538;2023-01-29T01:14:05;34.53;;;16.45;;
47715;SDS011;33476;50.984;3.538;2023-01-29T01:16:30;32.47;;;16.95;;
47715;SDS011;33476;50.984;3.538;2023-01-29T01:18:55;35.50;;;16.10;;
47715;SDS011;33476;50.984;3.538;2023-01-29T01:21:21;37.17;;;17.27;;
47715;SDS011;33476;50.984;3.538;2023-01-29T01:23:46;35.53;;;16.33;;
47715;SDS011;33476;50.984;3.538;2023-01-29T01:26:11;37.13;;;16.83;;
47715;SDS011;33476;50.984;3.538;2023-01-29T01:28:37;33.47;;;17.23;;
47715;SDS011;33476;50.984;3.538;2023-01-29T01:31:07;33.88;;;16.42;;
47715;SDS011;33476;50.984;3.538;2023-01-29T01:33:33;32.50;;;16.88;;
47715;SDS011;33476;50.984;3.538;2023-01-29T01:36:02;29.70;;;16.52;;
47715;SDS011;33476;50.984;3.538;2023-01-29T01:38:28;32.65;;;16.60;;
47715;SDS011;33476;50.984;3.538;2023-01-29T01:40:53;39.05;;;16.55;;
47715;SDS011;33476;50.984;3.538;2023-01-29T01:43:19;35.33;;;15.88;;
47715;SDS011;33476;50.984;3.538;2023-01-29T01:45:44;33.45;;;15.80;;
47715;SDS011;33476;50.984;3.538;2023-01-29T01:50:40;34.25;;;17.02;;
47715;SDS011;33476;50.984;3.538;2023-01-29T01:53:12;33.08;;;15.30;;
47715;SDS011;33476;50.984;3.538;2023-01-29T01:55:43;33.38;;;16.33;;
47715;SDS011;33476;50.984;3.538;2023-01-29T01:58:14;38.58;;;16.10;;
47715;SDS011;33476;50.984;3.538;2023-01-29T02:00:45;32.78;;;15.07;;
47715;SDS011;33476;50.984;3.538;2023-01-29T02:03:10;34.17;;;15.15;;
47715;SDS011;33476;50.984;3.538;2023-01-29T02:05:55;35.72;;;15.80;;
47715;SDS011;33476;50.984;3.538;2023-01-29T02:11:26;29.88;;;14.57;;
47715;SDS011;33476;50.984;3.538;2023-01-29T02:13:51;30.65;;;14.63;;
47715;SDS011;33476;50.984;3.538;2023-01-29T02:16:18;32.25;;;14.63;;
47715;SDS011;33476;50.984;3.538;2023-01-29T02:18:44;37.75;;;16.58;;
47715;SDS011;33476;50.984;3.538;2023-01-29T02:26:15;30.25;;;15.43;;
47715;SDS011;33476;50.984;3.538;2023-01-29T02:29:13;33.92;;;14.93;;
47715;SDS011;33476;50.984;3.538;2023-01-29T02:35:04;30.75;;;15.70;;
47715;SDS011;33476;50.984;3.538;2023-01-29T02:43:24;34.65;;;15.45;;
47715;SDS011;33476;50.984;3.538;2023-01-29T02:46:24;36.10;;;16.13;;
47715;SDS011;33476;50.984;3.538;2023-01-29T02:51:43;32.15;;;16.10;;
47715;SDS011;33476;50.984;3.538;2023-01-29T02:54:17;36.58;;;16.95;;
47715;SDS011;33476;50.984;3.538;2023-01-29T02:56:56;36.88;;;16.83;;
47715;SDS011;33476;50.984;3.538;2023-01-29T02:59:34;31.77;;;14.57;;
47715;SDS011;33476;50.984;3.538;2023-01-29T03:02:07;30.63;;;15.57;;
47715;SDS011;33476;50.984;3.538;2023-01-29T03:04:38;21.08;;;11.50;;
47715;SDS011;33476;50.984;3.538;2023-01-29T03:07:11;32.63;;;15.35;;
47715;SDS011;33476;50.984;3.538;2023-01-29T03:10:01;33.25;;;15.95;;
47715;SDS011;33476;50.984;3.538;2023-01-29T03:12:31;34.70;;;16.40;;
47715;SDS011;33476;50.984;3.538;2023-01-29T03:15:04;31.52;;;14.75;;
47715;SDS011;33476;50.984;3.538;2023-01-29T03:17:36;34.10;;;15.30;;
47715;SDS011;33476;50.984;3.538;2023-01-29T03:20:08;29.23;;;14.38;;
47715;SDS011;33476;50.984;3.538;2023-01-29T03:22:40;33.85;;;16.00;;
47715;SDS011;33476;50.984;3.538;2023-01-29T03:27:59;29.10;;;14.60;;
47715;SDS011;33476;50.984;3.538;2023-01-29T03:30:47;33.75;;;15.82;;
47715;SDS011;33476;50.984;3.538;2023-01-29T03:33:41;31.50;;;14.55;;
47715;SDS011;33476;50.984;3.538;2023-01-29T03:36:15;28.95;;;13.98;;
47715;SDS011;33476;50.984;3.538;2023-01-29T03:38:45;32.95;;;15.38;;
47715;SDS011;33476;50.984;3.538;2023-01-29T03:46:30;30.35;;;14.30;;
47715;SDS011;33476;50.984;3.538;2023-01-29T03:49:10;35.40;;;15.00;;
47715;SDS011;33476;50.984;3.538;2023-01-29T03:51:54;31.33;;;14.60;;
47715;SDS011;33476;50.984;3.538;2023-01-29T03:57:45;27.35;;;13.63;;
47715;SDS011;33476;50.984;3.538;2023-01-29T04:00:29;30.90;;;15.35;;
47715;SDS011;33476;50.984;3.538;2023-01-29T04:05:50;31.33;;;15.45;;
47715;SDS011;33476;50.984;3.538;2023-01-29T04:08:26;34.97;;;16.05;;
47715;SDS011;33476;50.984;3.538;2023-01-29T04:10:53;35.78;;;15.82;;
47715;SDS011;33476;50.984;3.538;2023-01-29T04:13:23;30.85;;;14.68;;
47715;SDS011;33476;50.984;3.538;2023-01-29T04:15:50;30.85;;;14.77;;
47715;SDS011;33476;50.984;3.538;2023-01-29T04:18:20;29.63;;;14.93;;
47715;SDS011;33476;50.984;3.538;2023-01-29T04:20:45;34.05;;;15.10;;
47715;SDS011;33476;50.984;3.538;2023-01-29T04:23:22;30.30;;;14.30;;
47715;SDS011;33476;50.984;3.538;2023-01-29T04:25:53;34.97;;;15.07;;
47715;SDS011;33476;50.984;3.538;2023-01-29T04:29:13;38.05;;;15.68;;
47715;SDS011;33476;50.984;3.538;2023-01-29T04:31:28;27.30;;;14.18;;
47715;SDS011;33476;50.984;3.538;2023-01-29T04:34:12;33.45;;;15.18;;
47715;SDS011;33476;50.984;3.538;2023-01-29T04:39:54;26.55;;;13.27;;
47715;SDS011;33476;50.984;3.538;2023-01-29T04:45:33;30.05;;;14.38;;
47715;SDS011;33476;50.984;3.538;2023-01-29T04:48:27;28.48;;;13.73;;
47715;SDS011;33476;50.984;3.538;2023-01-29T04:51:19;28.67;;;13.63;;
47715;SDS011;33476;50.984;3.538;2023-01-29T04:53:50;25.52;;;13.60;;
47715;SDS011;33476;50.984;3.538;2023-01-29T04:58:57;30.95;;;14.45;;
47715;SDS011;33476;50.984;3.538;2023-01-29T05:01:29;31.13;;;14.68;;
47715;SDS011;33476;50.984;3.538;2023-01-29T05:03:57;29.15;;;13.35;;
47715;SDS011;33476;50.984;3.538;2023-01-29T05:06:26;32.78;;;14.65;;
47715;SDS011;33476;50.984;3.538;2023-01-29T05:08:53;29.63;;;14.93;;
47715;SDS011;33476;50.984;3.538;2023-01-29T05:11:21;27.50;;;14.43;;
47715;SDS011;33476;50.984;3.538;2023-01-29T05:13:48;34.45;;;15.25;;
47715;SDS011;33476;50.984;3.538;2023-01-29T05:18:47;31.55;;;14.88;;
47715;SDS011;33476;50.984;3.538;2023-01-29T05:21:13;30.85;;;15.65;;
47715;SDS011;33476;50.984;3.538;2023-01-29T05:23:38;30.73;;;14.68;;
47715;SDS011;33476;50.984;3.538;2023-01-29T05:26:04;28.58;;;13.73;;
47715;SDS011;33476;50.984;3.538;2023-01-29T05:28:30;30.88;;;14.82;;
47715;SDS011;33476;50.984;3.538;2023-01-29T05:30:55;29.75;;;13.55;;
47715;SDS011;33476;50.984;3.538;2023-01-29T05:33:22;31.90;;;14.60;;
47715;SDS011;33476;50.984;3.538;2023-01-29T05:35:50;30.52;;;13.90;;
47715;SDS011;33476;50.984;3.538;2023-01-29T05:38:16;26.77;;;13.65;;
47715;SDS011;33476;50.984;3.538;2023-01-29T05:40:43;28.63;;;14.10;;
47715;SDS011;33476;50.984;3.538;2023-01-29T05:43:15;33.08;;;15.02;;
47715;SDS011;33476;50.984;3.538;2023-01-29T05:46:06;34.15;;;14.68;;
47715;SDS011;33476;50.984;3.538;2023-01-29T05:48:31;27.27;;;13.63;;
47715;SDS011;33476;50.984;3.538;2023-01-29T05:51:00;28.73;;;13.95;;
47715;SDS011;33476;50.984;3.538;2023-01-29T05:53:30;24.88;;;13.77;;
47715;SDS011;33476;50.984;3.538;2023-01-29T05:55:56;28.70;;;13.73;;
47715;SDS011;33476;50.984;3.538;2023-01-29T05:58:25;28.23;;;13.55;;
47715;SDS011;33476;50.984;3.538;2023-01-29T06:00:50;25.98;;;13.35;;
47715;SDS011;33476;50.984;3.538;2023-01-29T06:03:16;27.75;;;14.60;;
47715;SDS011;33476;50.984;3.538;2023-01-29T06:05:41;30.67;;;13.98;;
47715;SDS011;33476;50.984;3.538;2023-01-29T06:08:07;29.23;;;13.98;;
47715;SDS011;33476;50.984;3.538;2023-01-29T06:10:32;31.90;;;14.82;;
47715;SDS011;33476;50.984;3.538;2023-01-29T06:12:57;31.27;;;14.75;;
47715;SDS011;33476;50.984;3.538;2023-01-29T06:15:23;26.45;;;14.00;;
47715;SDS011;33476;50.984;3.538;2023-01-29T06:17:52;29.45;;;14.43;;
47715;SDS011;33476;50.984;3.538;2023-01-29T06:20:17;30.58;;;14.55;;
47715;SDS011;33476;50.984;3.538;2023-01-29T06:22:43;28.90;;;14.02;;
47715;SDS011;33476;50.984;3.538;2023-01-29T06:25:08;27.55;;;14.48;;
47715;SDS011;33476;50.984;3.538;2023-01-29T06:27:34;31.50;;;15.02;;
47715;SDS011;33476;50.984;3.538;2023-01-29T06:29:59;30.40;;;14.50;;
47715;SDS011;33476;50.984;3.538;2023-01-29T06:32:24;30.30;;;14.50;;
47715;SDS011;33476;50.984;3.538;2023-01-29T06:34:49;26.33;;;13.82;;
47715;SDS011;33476;50.984;3.538;2023-01-29T06:37:17;26.67;;;14.48;;
47715;SDS011;33476;50.984;3.538;2023-01-29T06:39:42;28.17;;;13.57;;
47715;SDS011;33476;50.984;3.538;2023-01-29T06:42:08;28.95;;;13.38;;
47715;SDS011;33476;50.984;3.538;2023-01-29T06:44:34;30.75;;;14.38;;
47715;SDS011;33476;50.984;3.538;2023-01-29T06:46:59;28.52;;;13.73;;
47715;SDS011;33476;50.984;3.538;2023-01-29T06:49:24;30.17;;;14.40;;
47715;SDS011;33476;50.984;3.538;2023-01-29T06:51:50;31.02;;;13.90;;
47715;SDS011;33476;50.984;3.538;2023-01-29T06:54:15;26.80;;;13.60;;
47715;SDS011;33476;50.984;3.538;2023-01-29T06:56:40;26.40;;;13.63;;
47715;SDS011;33476;50.984;3.538;2023-01-29T06:59:05;29.02;;;13.73;;
47715;SDS011;33476;50.984;3.538;2023-01-29T07:01:31;27.13;;;12.98;;
47715;SDS011;33476;50.984;3.538;2023-01-29T07:03:56;26.25;;;13.07;;
47715;SDS011;33476;50.984;3.538;2023-01-29T07:06:26;28.02;;;14.23;;
47715;SDS011;33476;50.984;3.538;2023-01-29T07:08:52;26.73;;;13.07;;
47715;SDS011;33476;50.984;3.538;2023-01-29T07:11:17;25.17;;;12.93;;
47715;SDS011;33476;50.984;3.538;2023-01-29T07:13:42;27.50;;;13.00;;
47715;SDS011;33476;50.984;3.538;2023-01-29T07:16:08;26.58;;;12.23;;
47715;SDS011;33476;50.984;3.538;2023-01-29T07:18:33;28.58;;;13.57;;
47715;SDS011;33476;50.984;3.538;2023-01-29T07:21:02;29.70;;;13.93;;
47715;SDS011;33476;50.984;3.538;2023-01-29T07:23:29;29.53;;;13.07;;
47715;SDS011;33476;50.984;3.538;2023-01-29T07:25:54;31.52;;;13.85;;
47715;SDS011;33476;50.984;3.538;2023-01-29T07:28:19;26.92;;;13.02;;
47715;SDS011;33476;50.984;3.538;2023-01-29T07:30:45;25.20;;;12.57;;
47715;SDS011;33476;50.984;3.538;2023-01-29T07:33:10;26.85;;;13.13;;
47715;SDS011;33476;50.984;3.538;2023-01-29T07:35:36;27.95;;;13.73;;
47715;SDS011;33476;50.984;3.538;2023-01-29T07:38:03;26.67;;;13.82;;
47715;SDS011;33476;50.984;3.538;2023-01-29T07:40:28;27.10;;;13.65;;
47715;SDS011;33476;50.984;3.538;2023-01-29T07:42:57;28.05;;;13.75;;
47715;SDS011;33476;50.984;3.538;2023-01-29T07:45:27;29.20;;;13.80;;
47715;SDS011;33476;50.984;3.538;2023-01-29T07:47:54;24.02;;;12.63;;
47715;SDS011;33476;50.984;3.538;2023-01-29T07:50:23;24.77;;;12.80;;
47715;SDS011;33476;50.984;3.538;2023-01-29T07:52:50;28.23;;;13.25;;
47715;SDS011;33476;50.984;3.538;2023-01-29T07:55:16;25.63;;;12.50;;
47715;SDS011;33476;50.984;3.538;2023-01-29T07:57:42;25.77;;;13.10;;
47715;SDS011;33476;50.984;3.538;2023-01-29T08:00:08;23.10;;;12.95;;
47715;SDS011;33476;50.984;3.538;2023-01-29T08:02:35;25.65;;;12.35;;
47715;SDS011;33476;50.984;3.538;2023-01-29T08:05:00;28.73;;;12.98;;
47715;SDS011;33476;50.984;3.538;2023-01-29T08:07:26;29.02;;;12.90;;
47715;SDS011;33476;50.984;3.538;2023-01-29T08:09:51;28.15;;;12.63;;
47715;SDS011;33476;50.984;3.538;2023-01-29T08:12:16;27.10;;;13.05;;
47715;SDS011;33476;50.984;3.538;2023-01-29T08:14:42;31.13;;;13.80;;
47715;SDS011;33476;50.984;3.538;2023-01-29T08:17:07;22.45;;;12.35;;
47715;SDS011;33476;50.984;3.538;2023-01-29T08:19:32;24.48;;;11.63;;
47715;SDS011;33476;50.984;3.538;2023-01-29T08:21:58;24.00;;;12.25;;
47715;SDS011;33476;50.984;3.538;2023-01-29T08:24:23;26.88;;;12.00;;
47715;SDS011;33476;50.984;3.538;2023-01-29T08:26:48;25.42;;;12.20;;
47715;SDS011;33476;50.984;3.538;2023-01-29T08:29:14;27.88;;;12.38;;
47715;SDS011;33476;50.984;3.538;2023-01-29T08:31:39;24.48;;;12.15;;
47715;SDS011;33476;50.984;3.538;2023-01-29T08:34:04;26.02;;;12.65;;
47715;SDS011;33476;50.984;3.538;2023-01-29T08:36:30;27.27;;;12.40;;
47715;SDS011;33476;50.984;3.538;2023-01-29T08:38:55;24.08;;;11.52;;
47715;SDS011;33476;50.984;3.538;2023-01-29T08:41:20;26.08;;;13.05;;
47715;SDS011;33476;50.984;3.538;2023-01-29T08:43:46;25.88;;;12.65;;
47715;SDS011;33476;50.984;3.538;2023-01-29T08:46:11;25.98;;;11.68;;
47715;SDS011;33476;50.984;3.538;2023-01-29T08:48:36;26.50;;;12.15;;
47715;SDS011;33476;50.984;3.538;2023-01-29T08:51:02;25.08;;;12.48;;
47715;SDS011;33476;50.984;3.538;2023-01-29T08:53:28;24.38;;;12.90;;
47715;SDS011;33476;50.984;3.538;2023-01-29T08:55:54;25.27;;;12.27;;
47715;SDS011;33476;50.984;3.538;2023-01-29T08:58:20;30.15;;;14.13;;
47715;SDS011;33476;50.984;3.538;2023-01-29T09:00:45;23.83;;;12.23;;
47715;SDS011;33476;50.984;3.538;2023-01-29T09:03:11;25.00;;;12.88;;
47715;SDS011;33476;50.984;3.538;2023-01-29T09:05:37;24.30;;;13.90;;
47715;SDS011;33476;50.984;3.538;2023-01-29T09:08:03;25.20;;;12.55;;
47715;SDS011;33476;50.984;3.538;2023-01-29T09:10:29;23.80;;;11.25;;
47715;SDS011;33476;50.984;3.538;2023-01-29T09:12:54;28.02;;;13.40;;
47715;SDS011;33476;50.984;3.538;2023-01-29T09:15:20;25.70;;;13.73;;
47715;SDS011;33476;50.984;3.538;2023-01-29T09:17:45;24.77;;;12.15;;
47715;SDS011;33476;50.984;3.538;2023-01-29T09:20:12;25.25;;;11.65;;
47715;SDS011;33476;50.984;3.538;2023-01-29T09:22:38;26.15;;;12.77;;
47715;SDS011;33476;50.984;3.538;2023-01-29T09:25:03;28.35;;;14.65;;
47715;SDS011;33476;50.984;3.538;2023-01-29T09:27:29;23.65;;;13.50;;
47715;SDS011;33476;50.984;3.538;2023-01-29T09:29:54;27.88;;;13.27;;
47715;SDS011;33476;50.984;3.538;2023-01-29T09:32:19;26.02;;;12.65;;
47715;SDS011;33476;50.984;3.538;2023-01-29T09:34:45;24.45;;;13.25;;
47715;SDS011;33476;50.984;3.538;2023-01-29T09:37:10;27.23;;;13.75;;
47715;SDS011;33476;50.984;3.538;2023-01-29T09:39:35;25.77;;;12.95;;
47715;SDS011;33476;50.984;3.538;2023-01-29T09:47:12;29.65;;;13.25;;
47715;SDS011;33476;50.984;3.538;2023-01-29T09:49:41;26.58;;;12.77;;
47715;SDS011;33476;50.984;3.538;2023-01-29T09:52:24;27.27;;;12.55;;
47715;SDS011;33476;50.984;3.538;2023-01-29T09:54:56;26.35;;;13.65;;
47715;SDS011;33476;50.984;3.538;2023-01-29T09:57:32;27.55;;;12.35;;
47715;SDS011;33476;50.984;3.538;2023-01-29T10:00:05;26.55;;;12.60;;
47715;SDS011;33476;50.984;3.538;2023-01-29T10:05:27;25.75;;;11.07;;
47715;SDS011;33476;50.984;3.538;2023-01-29T10:25:02;25.58;;;13.45;;
47715;SDS011;33476;50.984;3.538;2023-01-29T10:27:31;27.45;;;13.60;;
47715;SDS011;33476;50.984;3.538;2023-01-29T10:29:58;25.15;;;12.40;;
47715;SDS011;33476;50.984;3.538;2023-01-29T10:32:26;28.85;;;13.45;;
47715;SDS011;33476;50.984;3.538;2023-01-29T10:34:55;23.80;;;12.55;;
47715;SDS011;33476;50.984;3.538;2023-01-29T10:37:29;26.52;;;13.00;;
47715;SDS011;33476;50.984;3.538;2023-01-29T10:46:14;25.63;;;12.38;;
47715;SDS011;33476;50.984;3.538;2023-01-29T10:48:55;27.60;;;12.68;;
47715;SDS011;33476;50.984;3.538;2023-01-29T10:51:36;25.55;;;12.05;;
47715;SDS011;33476;50.984;3.538;2023-01-29T10:56:46;20.08;;;10.40;;
47715;SDS011;33476;50.984;3.538;2023-01-29T11:02:25;21.25;;;11.13;;
47715;SDS011;33476;50.984;3.538;2023-01-29T11:04:50;20.70;;;11.20;;
47715;SDS011;33476;50.984;3.538;2023-01-29T11:07:16;20.13;;;9.60;;
47715;SDS011;33476;50.984;3.538;2023-01-29T11:10:03;19.25;;;10.48;;
47715;SDS011;33476;50.984;3.538;2023-01-29T11:12:34;21.05;;;9.98;;
47715;SDS011;33476;50.984;3.538;2023-01-29T11:15:25;24.00;;;10.13;;
47715;SDS011;33476;50.984;3.538;2023-01-29T11:20:29;23.10;;;10.15;;
47715;SDS011;33476;50.984;3.538;2023-01-29T11:22:56;19.30;;;9.27;;
47715;SDS011;33476;50.984;3.538;2023-01-29T11:25:23;18.85;;;8.30;;
47715;SDS011;33476;50.984;3.538;2023-01-29T11:27:51;18.27;;;8.85;;
47715;SDS011;33476;50.984;3.538;2023-01-29T11:32:49;18.60;;;8.57;;
47715;SDS011;33476;50.984;3.538;2023-01-29T11:35:23;19.52;;;9.05;;
47715;SDS011;33476;50.984;3.538;2023-01-29T11:37:49;15.95;;;8.15;;
47715;SDS011;33476;50.984;3.538;2023-01-29T11:42:42;16.75;;;8.07;;
47715;SDS011;33476;50.984;3.538;2023-01-29T11:45:24;18.45;;;7.75;;
47715;SDS011;33476;50.984;3.538;2023-01-29T11:47:51;16.92;;;8.82;;
47715;SDS011;33476;50.984;3.538;2023-01-29T11:50:19;17.83;;;9.02;;
47715;SDS011;33476;50.984;3.538;2023-01-29T11:52:48;17.33;;;8.07;;
47715;SDS011;33476;50.984;3.538;2023-01-29T11:55:17;20.52;;;8.45;;
47715;SDS011;33476;50.984;3.538;2023-01-29T11:57:53;21.52;;;8.85;;
47715;SDS011;33476;50.984;3.538;2023-01-29T12:00:26;18.02;;;8.45;;
47715;SDS011;33476;50.984;3.538;2023-01-29T12:02:59;18.02;;;8.38;;
47715;SDS011;33476;50.984;3.538;2023-01-29T12:05:36;18.13;;;8.60;;
47715;SDS011;33476;50.984;3.538;2023-01-29T12:08:09;17.50;;;8.05;;
47715;SDS011;33476;50.984;3.538;2023-01-29T12:10:41;20.90;;;9.13;;
47715;SDS011;33476;50.984;3.538;2023-01-29T12:15:44;15.73;;;9.02;;
47715;SDS011;33476;50.984;3.538;2023-01-29T12:18:30;18.48;;;9.00;;
47715;SDS011;33476;50.984;3.538;2023-01-29T12:21:03;17.27;;;8.85;;
47715;SDS011;33476;50.984;3.538;2023-01-29T12:24:02;16.58;;;6.93;;
47715;SDS011;33476;50.984;3.538;2023-01-29T12:26:39;16.88;;;8.75;;
47715;SDS011;33476;50.984;3.538;2023-01-29T12:29:35;20.63;;;9.95;;
47715;SDS011;33476;50.984;3.538;2023-01-29T12:35:20;23.63;;;10.55;;
47715;SDS011;33476;50.984;3.538;2023-01-29T12:40:22;15.50;;;8.50;;
47715;SDS011;33476;50.984;3.538;2023-01-29T12:42:52;18.27;;;9.98;;
47715;SDS011;33476;50.984;3.538;2023-01-29T12:45:23;20.20;;;10.18;;
47715;SDS011;33476;50.984;3.538;2023-01-29T12:47:51;17.92;;;9.52;;
47715;SDS011;33476;50.984;3.538;2023-01-29T12:50:28;16.88;;;9.13;;
47715;SDS011;33476;50.984;3.538;2023-01-29T12:55:44;17.95;;;9.30;;
47715;SDS011;33476;50.984;3.538;2023-01-29T12:58:22;20.15;;;9.55;;
47715;SDS011;33476;50.984;3.538;2023-01-29T13:00:53;17.07;;;9.37;;
47715;SDS011;33476;50.984;3.538;2023-01-29T13:06:09;21.27;;;10.27;;
47715;SDS011;33476;50.984;3.538;2023-01-29T13:08:52;18.67;;;9.30;;
47715;SDS011;33476;50.984;3.538;2023-01-29T13:11:23;19.38;;;9.65;;
47715;SDS011;33476;50.984;3.538;2023-01-29T13:14:13;18.85;;;9.43;;
47715;SDS011;33476;50.984;3.538;2023-01-29T13:16:46;21.50;;;10.60;;
47715;SDS011;33476;50.984;3.538;2023-01-29T13:21:48;21.67;;;10.57;;
47715;SDS011;33476;50.984;3.538;2023-01-29T13:24:17;18.08;;;10.00;;
47715;SDS011;33476;50.984;3.538;2023-01-29T13:26:47;22.02;;;10.43;;
47715;SDS011;33476;50.984;3.538;2023-01-29T13:29:22;19.70;;;10.20;;
47715;SDS011;33476;50.984;3.538;2023-01-29T13:32:00;25.10;;;10.13;;
47715;SDS011;33476;50.984;3.538;2023-01-29T13:34:29;22.20;;;9.80;;
47715;SDS011;33476;50.984;3.538;2023-01-29T13:36:58;25.40;;;10.50;;
47715;SDS011;33476;50.984;3.538;2023-01-29T13:39:26;19.50;;;9.88;;
47715;SDS011;33476;50.984;3.538;2023-01-29T13:41:54;18.20;;;10.00;;
47715;SDS011;33476;50.984;3.538;2023-01-29T13:46:56;22.00;;;10.43;;
47715;SDS011;33476;50.984;3.538;2023-01-29T13:49:31;22.10;;;10.23;;
47715;SDS011;33476;50.984;3.538;2023-01-29T13:51:57;24.55;;;10.00;;
47715;SDS011;33476;50.984;3.538;2023-01-29T13:54:36;20.10;;;9.48;;
47715;SDS011;33476;50.984;3.538;2023-01-29T13:57:01;22.58;;;10.60;;
47715;SDS011;33476;50.984;3.538;2023-01-29T14:02:25;19.67;;;9.35;;
47715;SDS011;33476;50.984;3.538;2023-01-29T14:05:31;21.42;;;10.73;;
47715;SDS011;33476;50.984;3.538;2023-01-29T14:07:50;23.65;;;11.23;;
47715;SDS011;33476;50.984;3.538;2023-01-29T14:10:18;20.48;;;10.00;;
47715;SDS011;33476;50.984;3.538;2023-01-29T14:12:45;20.88;;;10.30;;
47715;SDS011;33476;50.984;3.538;2023-01-29T14:15:18;17.85;;;9.63;;
47715;SDS011;33476;50.984;3.538;2023-01-29T14:17:54;18.67;;;9.73;;
47715;SDS011;33476;50.984;3.538;2023-01-29T14:20:33;18.08;;;9.45;;
47715;SDS011;33476;50.984;3.538;2023-01-29T14:23:02;22.05;;;9.52;;
47715;SDS011;33476;50.984;3.538;2023-01-29T14:25:33;16.90;;;9.15;;
47715;SDS011;33476;50.984;3.538;2023-01-29T14:28:02;17.02;;;9.68;;
47715;SDS011;33476;50.984;3.538;2023-01-29T14:30:37;21.58;;;9.43;;
47715;SDS011;33476;50.984;3.538;2023-01-29T14:33:04;18.02;;;9.98;;
47715;SDS011;33476;50.984;3.538;2023-01-29T14:35:49;20.63;;;9.95;;
47715;SDS011;33476;50.984;3.538;2023-01-29T14:38:16;15.80;;;8.98;;
47715;SDS011;33476;50.984;3.538;2023-01-29T14:40:43;19.17;;;8.90;;
47715;SDS011;33476;50.984;3.538;2023-01-29T14:43:29;16.90;;;8.55;;
47715;SDS011;33476;50.984;3.538;2023-01-29T14:45:54;16.70;;;8.90;;
47715;SDS011;33476;50.984;3.538;2023-01-29T14:49:43;13.05;;;6.93;;
47715;SDS011;33476;50.984;3.538;2023-01-29T14:52:35;17.38;;;9.27;;
47715;SDS011;33476;50.984;3.538;2023-01-29T14:55:05;19.42;;;9.00;;
47715;SDS011;33476;50.984;3.538;2023-01-29T14:57:35;16.10;;;8.40;;
47715;SDS011;33476;50.984;3.538;2023-01-29T15:00:02;17.17;;;8.52;;
47715;SDS011;33476;50.984;3.538;2023-01-29T15:05:01;22.25;;;9.15;;
47715;SDS011;33476;50.984;3.538;2023-01-29T15:10:07;16.35;;;8.57;;
47715;SDS011;33476;50.984;3.538;2023-01-29T15:15:34;17.05;;;8.43;;
47715;SDS011;33476;50.984;3.538;2023-01-29T15:18:08;17.65;;;8.60;;
47715;SDS011;33476;50.984;3.538;2023-01-29T15:20:40;19.95;;;9.18;;
47715;SDS011;33476;50.984;3.538;2023-01-29T15:25:53;15.98;;;8.73;;
47715;SDS011;33476;50.984;3.538;2023-01-29T15:28:20;17.02;;;9.35;;
47715;SDS011;33476;50.984;3.538;2023-01-29T15:30:49;24.77;;;9.40;;
47715;SDS011;33476;50.984;3.538;2023-01-29T15:33:18;17.63;;;8.68;;
47715;SDS011;33476;50.984;3.538;2023-01-29T15:35:44;17.00;;;9.05;;
47715;SDS011;33476;50.984;3.538;2023-01-29T15:38:15;15.68;;;8.50;;
47715;SDS011;33476;50.984;3.538;2023-01-29T15:40:40;14.98;;;8.77;;
47715;SDS011;33476;50.984;3.538;2023-01-29T15:43:19;16.70;;;8.88;;
47715;SDS011;33476;50.984;3.538;2023-01-29T15:48:13;18.30;;;8.80;;
47715;SDS011;33476;50.984;3.538;2023-01-29T15:50:42;18.38;;;9.50;;
47715;SDS011;33476;50.984;3.538;2023-01-29T15:53:12;20.85;;;9.35;;
47715;SDS011;33476;50.984;3.538;2023-01-29T15:55:41;19.98;;;9.95;;
47715;SDS011;33476;50.984;3.538;2023-01-29T15:58:11;18.90;;;9.52;;
47715;SDS011;33476;50.984;3.538;2023-01-29T16:00:46;18.55;;;9.02;;
47715;SDS011;33476;50.984;3.538;2023-01-29T16:03:15;17.85;;;9.15;;
47715;SDS011;33476;50.984;3.538;2023-01-29T16:05:41;21.40;;;10.07;;
47715;SDS011;33476;50.984;3.538;2023-01-29T16:08:08;17.20;;;9.18;;
47715;SDS011;33476;50.984;3.538;2023-01-29T16:10:37;18.90;;;9.27;;
47715;SDS011;33476;50.984;3.538;2023-01-29T16:13:18;19.70;;;9.65;;
47715;SDS011;33476;50.984;3.538;2023-01-29T16:16:22;17.65;;;9.20;;
47715;SDS011;33476;50.984;3.538;2023-01-29T16:18:39;19.88;;;9.45;;
47715;SDS011;33476;50.984;3.538;2023-01-29T16:21:08;17.52;;;9.13;;
47715;SDS011;33476;50.984;3.538;2023-01-29T16:23:46;19.58;;;9.50;;
47715;SDS011;33476;50.984;3.538;2023-01-29T16:26:15;20.77;;;10.00;;
47715;SDS011;33476;50.984;3.538;2023-01-29T16:28:43;19.27;;;9.55;;
47715;SDS011;33476;50.984;3.538;2023-01-29T16:31:10;19.88;;;9.75;;
47715;SDS011;33476;50.984;3.538;2023-01-29T16:33:39;21.30;;;9.88;;
47715;SDS011;33476;50.984;3.538;2023-01-29T16:36:07;20.73;;;9.95;;
47715;SDS011;33476;50.984;3.538;2023-01-29T16:38:51;19.35;;;9.68;;
47715;SDS011;33476;50.984;3.538;2023-01-29T16:46:18;18.30;;;9.85;;
47715;SDS011;33476;50.984;3.538;2023-01-29T16:48:48;19.58;;;9.77;;
47715;SDS011;33476;50.984;3.538;2023-01-29T16:51:19;23.73;;;10.95;;
47715;SDS011;33476;50.984;3.538;2023-01-29T16:53:54;21.33;;;11.10;;
47715;SDS011;33476;50.984;3.538;2023-01-29T16:56:24;20.33;;;10.23;;
47715;SDS011;33476;50.984;3.538;2023-01-29T16:58:53;19.30;;;9.73;;